sensor_id;sensor_type;location;lat;lon;timestamp;temperature;humidity
41457;DHT22;27197;51.752;5.220;2023-07-22T00:00:10;23.20;69.90
41457;DHT22;27197;51.752;5.220;2023-07-22T00:02:40;23.00;72.80
41457;DHT22;27197;51.752;5.220;2023-07-22T00:05:14;22.90;73.10
41457;DHT22;27197;51.752;5.220;2023-07-22T00:07:42;22.90;70.70
41457;DHT22;27197;51.752;5.220;2023-07-22T00:10:13;23.00;68.00
41457;DHT22;27197;51.752;5.220;2023-07-22T00:12:47;23.00;70.80
41457;DHT22;27197;51.752;5.220;2023-07-22T00:15:19;23.10;73.10
41457;DHT22;27197;51.752;5.220;2023-07-22T00:17:51;23.10;73.10
41457;DHT22;27197;51.752;5.220;2023-07-22T00:20:25;23.20;70.10
41457;DHT22;27197;51.752;5.220;2023-07-22T00:22:54;23.10;72.20
41457;DHT22;27197;51.752;5.220;2023-07-22T00:25:25;23.00;63.70
41457;DHT22;27197;51.752;5.220;2023-07-22T00:27:58;23.00;71.60
41457;DHT22;27197;51.752;5.220;2023-07-22T00:30:29;23.10;74.30
41457;DHT22;27197;51.752;5.220;2023-07-22T00:33:00;23.00;68.40
41457;DHT22;27197;51.752;5.220;2023-07-22T00:35:34;23.10;73.60
41457;DHT22;27197;51.752;5.220;2023-07-22T00:38:04;23.00;68.20
41457;DHT22;27197;51.752;5.220;2023-07-22T00:40:38;23.00;66.30
41457;DHT22;27197;51.752;5.220;2023-07-22T00:43:10;23.00;72.50
41457;DHT22;27197;51.752;5.220;2023-07-22T00:45:44;23.00;72.50
41457;DHT22;27197;51.752;5.220;2023-07-22T00:48:15;22.90;71.30
41457;DHT22;27197;51.752;5.220;2023-07-22T00:50:46;22.90;68.80
41457;DHT22;27197;51.752;5.220;2023-07-22T00:53:19;22.80;64.80
41457;DHT22;27197;51.752;5.220;2023-07-22T00:55:53;22.80;71.60
41457;DHT22;27197;51.752;5.220;2023-07-22T00:58:26;22.80;70.40
41457;DHT22;27197;51.752;5.220;2023-07-22T01:00:56;23.00;71.90
41457;DHT22;27197;51.752;5.220;2023-07-22T01:03:30;23.00;68.80
41457;DHT22;27197;51.752;5.220;2023-07-22T01:06:05;23.10;67.60
41457;DHT22;27197;51.752;5.220;2023-07-22T01:08:36;22.90;68.10
41457;DHT22;27197;51.752;5.220;2023-07-22T01:11:10;22.90;68.50
41457;DHT22;27197;51.752;5.220;2023-07-22T01:13:40;23.00;70.70
41457;DHT22;27197;51.752;5.220;2023-07-22T01:16:10;22.90;70.00
41457;DHT22;27197;51.752;5.220;2023-07-22T01:18:44;23.00;69.00
41457;DHT22;27197;51.752;5.220;2023-07-22T01:21:18;23.00;68.20
41457;DHT22;27197;51.752;5.220;2023-07-22T01:23:52;23.10;72.60
41457;DHT22;27197;51.752;5.220;2023-07-22T01:26:21;23.00;71.90
41457;DHT22;27197;51.752;5.220;2023-07-22T01:29:02;23.00;71.40
41457;DHT22;27197;51.752;5.220;2023-07-22T01:31:34;23.00;71.30
41457;DHT22;27197;51.752;5.220;2023-07-22T01:34:08;23.10;71.10
41457;DHT22;27197;51.752;5.220;2023-07-22T01:36:41;23.10;68.00
41457;DHT22;27197;51.752;5.220;2023-07-22T01:39:17;23.20;72.50
41457;DHT22;27197;51.752;5.220;2023-07-22T01:41:49;23.20;72.00
41457;DHT22;27197;51.752;5.220;2023-07-22T01:44:23;23.30;72.10
41457;DHT22;27197;51.752;5.220;2023-07-22T01:46:55;23.40;72.10
41457;DHT22;27197;51.752;5.220;2023-07-22T01:49:28;23.40;71.90
41457;DHT22;27197;51.752;5.220;2023-07-22T01:51:59;23.40;71.60
41457;DHT22;27197;51.752;5.220;2023-07-22T01:54:31;23.40;71.50
41457;DHT22;27197;51.752;5.220;2023-07-22T01:57:03;23.50;71.40
41457;DHT22;27197;51.752;5.220;2023-07-22T01:59:34;23.50;71.50
41457;DHT22;27197;51.752;5.220;2023-07-22T02:02:05;23.50;70.90
41457;DHT22;27197;51.752;5.220;2023-07-22T02:04:34;23.50;71.30
41457;DHT22;27197;51.752;5.220;2023-07-22T02:07:06;23.40;67.00
41457;DHT22;27197;51.752;5.220;2023-07-22T02:17:36;23.50;71.00
41457;DHT22;27197;51.752;5.220;2023-07-22T02:20:08;23.50;70.30
41457;DHT22;27197;51.752;5.220;2023-07-22T02:22:40;23.50;70.60
41457;DHT22;27197;51.752;5.220;2023-07-22T02:25:14;23.40;70.00
41457;DHT22;27197;51.752;5.220;2023-07-22T02:27:42;23.40;67.00
41457;DHT22;27197;51.752;5.220;2023-07-22T02:30:11;23.30;70.20
41457;DHT22;27197;51.752;5.220;2023-07-22T02:32:45;23.30;70.40
41457;DHT22;27197;51.752;5.220;2023-07-22T02:35:17;23.30;69.90
41457;DHT22;27197;51.752;5.220;2023-07-22T02:37:58;23.20;66.50
41457;DHT22;27197;51.752;5.220;2023-07-22T02:40:33;23.30;70.40
41457;DHT22;27197;51.752;5.220;2023-07-22T02:43:04;23.40;67.70
41457;DHT22;27197;51.752;5.220;2023-07-22T02:45:37;23.30;70.00
41457;DHT22;27197;51.752;5.220;2023-07-22T02:48:07;23.10;68.00
41457;DHT22;27197;51.752;5.220;2023-07-22T02:50:39;23.20;70.20
41457;DHT22;27197;51.752;5.220;2023-07-22T02:53:11;23.20;69.80
41457;DHT22;27197;51.752;5.220;2023-07-22T03:17:28;23.10;69.70
41457;DHT22;27197;51.752;5.220;2023-07-22T03:20:02;23.20;69.90
41457;DHT22;27197;51.752;5.220;2023-07-22T03:22:32;23.20;66.70
41457;DHT22;27197;51.752;5.220;2023-07-22T03:25:03;23.10;68.50
41457;DHT22;27197;51.752;5.220;2023-07-22T03:27:34;23.00;66.90
41457;DHT22;27197;51.752;5.220;2023-07-22T03:30:08;23.00;68.40
41457;DHT22;27197;51.752;5.220;2023-07-22T03:32:41;23.10;69.00
41457;DHT22;27197;51.752;5.220;2023-07-22T03:35:13;23.10;69.90
41457;DHT22;27197;51.752;5.220;2023-07-22T03:37:42;23.10;65.00
41457;DHT22;27197;51.752;5.220;2023-07-22T03:40:16;23.10;69.70
41457;DHT22;27197;51.752;5.220;2023-07-22T03:42:49;22.90;67.40
41457;DHT22;27197;51.752;5.220;2023-07-22T03:45:24;22.90;68.40
41457;DHT22;27197;51.752;5.220;2023-07-22T03:47:58;22.80;63.00
41457;DHT22;27197;51.752;5.220;2023-07-22T03:50:28;22.60;68.70
41457;DHT22;27197;51.752;5.220;2023-07-22T03:53:00;22.80;70.00
41457;DHT22;27197;51.752;5.220;2023-07-22T03:55:31;22.70;67.80
41457;DHT22;27197;51.752;5.220;2023-07-22T03:58:00;22.80;69.70
41457;DHT22;27197;51.752;5.220;2023-07-22T04:06:09;22.50;66.20
41457;DHT22;27197;51.752;5.220;2023-07-22T04:08:40;22.60;68.70
41457;DHT22;27197;51.752;5.220;2023-07-22T04:11:12;22.70;70.10
41457;DHT22;27197;51.752;5.220;2023-07-22T04:13:45;22.80;68.00
41457;DHT22;27197;51.752;5.220;2023-07-22T04:16:16;22.80;69.30
41457;DHT22;27197;51.752;5.220;2023-07-22T04:18:48;22.90;68.80
41457;DHT22;27197;51.752;5.220;2023-07-22T04:21:19;22.90;68.20
41457;DHT22;27197;51.752;5.220;2023-07-22T04:23:51;22.80;64.50
41457;DHT22;27197;51.752;5.220;2023-07-22T04:26:21;22.80;65.70
41457;DHT22;27197;51.752;5.220;2023-07-22T04:28:51;22.80;66.30
41457;DHT22;27197;51.752;5.220;2023-07-22T04:31:22;22.90;68.70
41457;DHT22;27197;51.752;5.220;2023-07-22T04:33:57;22.90;66.00
41457;DHT22;27197;51.752;5.220;2023-07-22T04:36:28;22.80;62.60
41457;DHT22;27197;51.752;5.220;2023-07-22T04:38:59;22.50;63.60
41457;DHT22;27197;51.752;5.220;2023-07-22T04:41:32;22.40;68.80
41457;DHT22;27197;51.752;5.220;2023-07-22T04:44:03;22.40;68.00
41457;DHT22;27197;51.752;5.220;2023-07-22T04:46:37;22.50;68.20
41457;DHT22;27197;51.752;5.220;2023-07-22T04:49:07;22.50;67.90
41457;DHT22;27197;51.752;5.220;2023-07-22T04:51:39;22.50;68.40
41457;DHT22;27197;51.752;5.220;2023-07-22T04:54:14;22.60;69.70
41457;DHT22;27197;51.752;5.220;2023-07-22T04:56:43;22.60;64.50
41457;DHT22;27197;51.752;5.220;2023-07-22T04:59:18;22.40;65.70
41457;DHT22;27197;51.752;5.220;2023-07-22T05:01:46;22.50;68.00
41457;DHT22;27197;51.752;5.220;2023-07-22T05:04:22;22.30;67.80
41457;DHT22;27197;51.752;5.220;2023-07-22T05:06:51;22.40;67.80
41457;DHT22;27197;51.752;5.220;2023-07-22T05:09:24;22.30;69.40
41457;DHT22;27197;51.752;5.220;2023-07-22T05:11:52;22.20;66.10
41457;DHT22;27197;51.752;5.220;2023-07-22T05:19:46;22.40;69.70
41457;DHT22;27197;51.752;5.220;2023-07-22T05:22:16;22.40;69.30
41457;DHT22;27197;51.752;5.220;2023-07-22T05:24:47;22.30;66.70
41457;DHT22;27197;51.752;5.220;2023-07-22T05:27:21;22.30;66.50
41457;DHT22;27197;51.752;5.220;2023-07-22T05:29:50;22.20;68.60
41457;DHT22;27197;51.752;5.220;2023-07-22T05:32:20;22.30;69.10
41457;DHT22;27197;51.752;5.220;2023-07-22T05:34:55;22.50;70.50
41457;DHT22;27197;51.752;5.220;2023-07-22T05:37:26;22.70;68.60
41457;DHT22;27197;51.752;5.220;2023-07-22T05:39:59;22.70;66.30
41457;DHT22;27197;51.752;5.220;2023-07-22T05:42:31;22.50;70.10
41457;DHT22;27197;51.752;5.220;2023-07-22T05:45:03;22.30;69.10
41457;DHT22;27197;51.752;5.220;2023-07-22T05:47:35;22.40;69.60
41457;DHT22;27197;51.752;5.220;2023-07-22T05:50:07;22.50;70.10
41457;DHT22;27197;51.752;5.220;2023-07-22T05:52:41;22.50;66.90
41457;DHT22;27197;51.752;5.220;2023-07-22T05:55:15;22.20;68.00
41457;DHT22;27197;51.752;5.220;2023-07-22T05:57:46;22.20;67.20
41457;DHT22;27197;51.752;5.220;2023-07-22T06:00:22;22.20;66.90
41457;DHT22;27197;51.752;5.220;2023-07-22T06:02:52;22.10;68.80
41457;DHT22;27197;51.752;5.220;2023-07-22T06:05:23;22.00;66.70
41457;DHT22;27197;51.752;5.220;2023-07-22T06:07:54;21.80;67.30
41457;DHT22;27197;51.752;5.220;2023-07-22T06:10:26;21.80;66.90
41457;DHT22;27197;51.752;5.220;2023-07-22T06:12:57;21.50;64.40
41457;DHT22;27197;51.752;5.220;2023-07-22T06:15:28;21.50;66.80
41457;DHT22;27197;51.752;5.220;2023-07-22T06:17:58;21.50;67.00
41457;DHT22;27197;51.752;5.220;2023-07-22T06:20:30;21.60;66.00
41457;DHT22;27197;51.752;5.220;2023-07-22T06:23:01;21.60;67.80
41457;DHT22;27197;51.752;5.220;2023-07-22T06:25:36;21.60;66.30
41457;DHT22;27197;51.752;5.220;2023-07-22T06:28:06;21.30;70.70
41457;DHT22;27197;51.752;5.220;2023-07-22T06:30:41;21.30;69.10
41457;DHT22;27197;51.752;5.220;2023-07-22T06:33:13;21.60;72.80
41457;DHT22;27197;51.752;5.220;2023-07-22T06:35:48;21.70;68.70
41457;DHT22;27197;51.752;5.220;2023-07-22T06:38:18;21.70;68.70
41457;DHT22;27197;51.752;5.220;2023-07-22T06:40:49;21.70;67.60
41457;DHT22;27197;51.752;5.220;2023-07-22T06:43:21;21.80;72.30
41457;DHT22;27197;51.752;5.220;2023-07-22T06:45:56;21.90;68.00
41457;DHT22;27197;51.752;5.220;2023-07-22T06:48:27;21.90;67.30
41457;DHT22;27197;51.752;5.220;2023-07-22T06:50:56;21.80;70.00
41457;DHT22;27197;51.752;5.220;2023-07-22T06:53:28;21.90;69.70
41457;DHT22;27197;51.752;5.220;2023-07-22T06:55:57;21.80;66.50
41457;DHT22;27197;51.752;5.220;2023-07-22T06:58:29;21.90;70.10
41457;DHT22;27197;51.752;5.220;2023-07-22T07:00:57;22.00;69.50
41457;DHT22;27197;51.752;5.220;2023-07-22T07:03:27;22.10;69.90
41457;DHT22;27197;51.752;5.220;2023-07-22T07:06:00;21.90;67.10
41457;DHT22;27197;51.752;5.220;2023-07-22T07:08:32;21.80;68.40
41457;DHT22;27197;51.752;5.220;2023-07-22T07:11:03;21.60;67.80
41457;DHT22;27197;51.752;5.220;2023-07-22T07:13:35;21.60;68.80
41457;DHT22;27197;51.752;5.220;2023-07-22T07:16:24;21.70;67.20
41457;DHT22;27197;51.752;5.220;2023-07-22T07:18:57;21.80;69.30
41457;DHT22;27197;51.752;5.220;2023-07-22T07:21:26;21.90;69.00
41457;DHT22;27197;51.752;5.220;2023-07-22T07:24:01;22.00;70.40
41457;DHT22;27197;51.752;5.220;2023-07-22T07:26:30;21.90;68.50
41457;DHT22;27197;51.752;5.220;2023-07-22T07:29:04;22.20;68.90
41457;DHT22;27197;51.752;5.220;2023-07-22T07:31:34;22.00;67.20
41457;DHT22;27197;51.752;5.220;2023-07-22T07:34:06;22.10;67.90
41457;DHT22;27197;51.752;5.220;2023-07-22T07:36:35;21.90;68.20
41457;DHT22;27197;51.752;5.220;2023-07-22T07:39:10;21.90;69.70
41457;DHT22;27197;51.752;5.220;2023-07-22T07:41:39;21.80;68.00
41457;DHT22;27197;51.752;5.220;2023-07-22T07:44:12;21.90;67.30
41457;DHT22;27197;51.752;5.220;2023-07-22T08:00:42;22.20;66.40
41457;DHT22;27197;51.752;5.220;2023-07-22T08:03:16;22.10;65.20
41457;DHT22;27197;51.752;5.220;2023-07-22T08:05:47;22.00;66.20
41457;DHT22;27197;51.752;5.220;2023-07-22T08:08:20;22.10;67.50
41457;DHT22;27197;51.752;5.220;2023-07-22T08:11:05;22.20;69.40
41457;DHT22;27197;51.752;5.220;2023-07-22T08:13:40;22.30;67.60
41457;DHT22;27197;51.752;5.220;2023-07-22T08:16:12;22.30;65.30
41457;DHT22;27197;51.752;5.220;2023-07-22T08:18:46;22.30;70.60
41457;DHT22;27197;51.752;5.220;2023-07-22T08:21:18;22.20;65.30
41457;DHT22;27197;51.752;5.220;2023-07-22T08:23:48;22.20;65.30
41457;DHT22;27197;51.752;5.220;2023-07-22T08:26:17;22.20;68.30
41457;DHT22;27197;51.752;5.220;2023-07-22T08:28:49;22.20;67.80
41457;DHT22;27197;51.752;5.220;2023-07-22T08:31:19;22.30;68.20
41457;DHT22;27197;51.752;5.220;2023-07-22T08:33:53;22.30;65.20
41457;DHT22;27197;51.752;5.220;2023-07-22T08:36:21;22.10;64.70
41457;DHT22;27197;51.752;5.220;2023-07-22T08:38:51;22.10;67.30
41457;DHT22;27197;51.752;5.220;2023-07-22T08:41:25;22.00;67.70
41457;DHT22;27197;51.752;5.220;2023-07-22T08:43:56;22.10;68.10
41457;DHT22;27197;51.752;5.220;2023-07-22T08:46:33;22.30;65.80
41457;DHT22;27197;51.752;5.220;2023-07-22T08:49:05;22.20;63.90
41457;DHT22;27197;51.752;5.220;2023-07-22T08:51:38;22.10;64.30
41457;DHT22;27197;51.752;5.220;2023-07-22T08:54:11;22.00;65.30
41457;DHT22;27197;51.752;5.220;2023-07-22T08:56:43;22.10;65.00
41457;DHT22;27197;51.752;5.220;2023-07-22T08:59:16;22.10;65.10
41457;DHT22;27197;51.752;5.220;2023-07-22T09:32:36;22.50;65.80
41457;DHT22;27197;51.752;5.220;2023-07-22T09:35:07;22.40;65.40
41457;DHT22;27197;51.752;5.220;2023-07-22T09:37:41;22.50;69.50
41457;DHT22;27197;51.752;5.220;2023-07-22T09:40:25;22.50;70.10
41457;DHT22;27197;51.752;5.220;2023-07-22T09:43:01;22.60;64.30
41457;DHT22;27197;51.752;5.220;2023-07-22T09:45:30;22.50;64.00
41457;DHT22;27197;51.752;5.220;2023-07-22T09:48:03;22.50;62.60
41457;DHT22;27197;51.752;5.220;2023-07-22T09:50:38;22.60;68.30
41457;DHT22;27197;51.752;5.220;2023-07-22T09:53:09;22.70;63.40
41457;DHT22;27197;51.752;5.220;2023-07-22T09:55:41;22.60;64.20
41457;DHT22;27197;51.752;5.220;2023-07-22T09:58:12;22.60;65.60
41457;DHT22;27197;51.752;5.220;2023-07-22T10:00:47;22.70;65.80
41457;DHT22;27197;51.752;5.220;2023-07-22T10:03:19;22.70;62.70
41457;DHT22;27197;51.752;5.220;2023-07-22T11:15:06;22.80;72.10
41457;DHT22;27197;51.752;5.220;2023-07-22T11:17:39;22.90;67.00
41457;DHT22;27197;51.752;5.220;2023-07-22T11:20:11;23.00;67.60
41457;DHT22;27197;51.752;5.220;2023-07-22T11:22:44;23.00;66.50
41457;DHT22;27197;51.752;5.220;2023-07-22T11:25:22;22.90;65.30
41457;DHT22;27197;51.752;5.220;2023-07-22T11:27:56;22.90;63.90
41457;DHT22;27197;51.752;5.220;2023-07-22T11:30:28;22.90;69.30
41457;DHT22;27197;51.752;5.220;2023-07-22T11:32:58;23.00;68.00
41457;DHT22;27197;51.752;5.220;2023-07-22T11:35:29;23.10;66.40
41457;DHT22;27197;51.752;5.220;2023-07-22T11:38:11;23.00;66.40
41457;DHT22;27197;51.752;5.220;2023-07-22T11:40:41;23.00;60.60
41457;DHT22;27197;51.752;5.220;2023-07-22T11:43:10;22.80;60.20
41457;DHT22;27197;51.752;5.220;2023-07-22T11:45:42;22.90;62.40
41457;DHT22;27197;51.752;5.220;2023-07-22T11:48:11;22.90;65.20
41457;DHT22;27197;51.752;5.220;2023-07-22T11:50:46;23.00;67.40
41457;DHT22;27197;51.752;5.220;2023-07-22T11:53:17;22.90;64.80
41457;DHT22;27197;51.752;5.220;2023-07-22T11:55:46;23.00;68.00
41457;DHT22;27197;51.752;5.220;2023-07-22T11:58:23;23.10;68.30
41457;DHT22;27197;51.752;5.220;2023-07-22T12:01:06;23.20;65.90
41457;DHT22;27197;51.752;5.220;2023-07-22T12:03:36;23.20;67.20
41457;DHT22;27197;51.752;5.220;2023-07-22T12:06:07;23.30;65.30
41457;DHT22;27197;51.752;5.220;2023-07-22T12:08:46;23.30;67.40
41457;DHT22;27197;51.752;5.220;2023-07-22T12:11:23;23.40;66.50
41457;DHT22;27197;51.752;5.220;2023-07-22T12:14:10;23.40;66.00
41457;DHT22;27197;51.752;5.220;2023-07-22T12:16:43;23.30;66.10
41457;DHT22;27197;51.752;5.220;2023-07-22T12:19:14;23.30;65.30
41457;DHT22;27197;51.752;5.220;2023-07-22T12:21:46;23.40;66.40
41457;DHT22;27197;51.752;5.220;2023-07-22T12:24:22;23.40;66.30
41457;DHT22;27197;51.752;5.220;2023-07-22T12:26:51;23.50;65.90
41457;DHT22;27197;51.752;5.220;2023-07-22T12:29:25;23.50;65.90
41457;DHT22;27197;51.752;5.220;2023-07-22T12:31:55;23.40;64.50
41457;DHT22;27197;51.752;5.220;2023-07-22T12:34:28;23.40;64.30
41457;DHT22;27197;51.752;5.220;2023-07-22T12:36:59;23.40;63.20
41457;DHT22;27197;51.752;5.220;2023-07-22T12:39:28;23.30;62.80
41457;DHT22;27197;51.752;5.220;2023-07-22T12:42:02;23.30;65.10
41457;DHT22;27197;51.752;5.220;2023-07-22T12:44:33;23.30;63.20
41457;DHT22;27197;51.752;5.220;2023-07-22T12:47:02;23.30;65.00
41457;DHT22;27197;51.752;5.220;2023-07-22T12:49:37;23.30;63.60
41457;DHT22;27197;51.752;5.220;2023-07-22T12:52:08;23.30;64.50
41457;DHT22;27197;51.752;5.220;2023-07-22T12:54:43;23.40;65.30
41457;DHT22;27197;51.752;5.220;2023-07-22T12:57:11;23.40;65.50
41457;DHT22;27197;51.752;5.220;2023-07-22T12:59:43;23.40;65.20
41457;DHT22;27197;51.752;5.220;2023-07-22T13:02:13;23.40;65.30
41457;DHT22;27197;51.752;5.220;2023-07-22T13:04:44;23.50;65.40
41457;DHT22;27197;51.752;5.220;2023-07-22T13:07:14;23.50;65.60
41457;DHT22;27197;51.752;5.220;2023-07-22T13:09:50;23.40;64.70
41457;DHT22;27197;51.752;5.220;2023-07-22T13:12:18;23.50;63.80
41457;DHT22;27197;51.752;5.220;2023-07-22T13:14:52;23.40;63.00
41457;DHT22;27197;51.752;5.220;2023-07-22T13:17:21;23.40;64.20
41457;DHT22;27197;51.752;5.220;2023-07-22T13:19:56;23.40;64.50
41457;DHT22;27197;51.752;5.220;2023-07-22T13:22:30;23.40;64.10
41457;DHT22;27197;51.752;5.220;2023-07-22T13:25:01;23.50;63.90
41457;DHT22;27197;51.752;5.220;2023-07-22T13:27:32;23.40;63.90
41457;DHT22;27197;51.752;5.220;2023-07-22T13:30:06;23.50;64.10
41457;DHT22;27197;51.752;5.220;2023-07-22T13:32:36;23.40;63.80
41457;DHT22;27197;51.752;5.220;2023-07-22T13:35:07;23.50;64.00
41457;DHT22;27197;51.752;5.220;2023-07-22T13:37:39;23.50;63.90
41457;DHT22;27197;51.752;5.220;2023-07-22T13:40:08;23.50;64.50
41457;DHT22;27197;51.752;5.220;2023-07-22T13:42:40;23.50;63.40
41457;DHT22;27197;51.752;5.220;2023-07-22T13:45:11;23.40;63.30
41457;DHT22;27197;51.752;5.220;2023-07-22T13:47:42;23.40;63.50
41457;DHT22;27197;51.752;5.220;2023-07-22T13:50:14;23.30;63.60
41457;DHT22;27197;51.752;5.220;2023-07-22T13:52:46;23.30;62.60
41457;DHT22;27197;51.752;5.220;2023-07-22T13:55:19;23.30;62.80
41457;DHT22;27197;51.752;5.220;2023-07-22T13:57:49;23.30;63.40
41457;DHT22;27197;51.752;5.220;2023-07-22T14:00:21;23.40;63.50
41457;DHT22;27197;51.752;5.220;2023-07-22T14:02:53;23.30;63.90
41457;DHT22;27197;51.752;5.220;2023-07-22T14:05:23;23.30;63.30
41457;DHT22;27197;51.752;5.220;2023-07-22T14:10:25;23.40;63.50
41457;DHT22;27197;51.752;5.220;2023-07-22T14:12:59;23.40;63.70
41457;DHT22;27197;51.752;5.220;2023-07-22T14:15:28;23.40;63.60
41457;DHT22;27197;51.752;5.220;2023-07-22T14:18:00;23.40;63.90
41457;DHT22;27197;51.752;5.220;2023-07-22T14:20:31;23.40;63.60
41457;DHT22;27197;51.752;5.220;2023-07-22T14:23:04;23.40;64.20
41457;DHT22;27197;51.752;5.220;2023-07-22T14:25:38;23.40;63.20
41457;DHT22;27197;51.752;5.220;2023-07-22T14:28:10;23.40;62.50
41457;DHT22;27197;51.752;5.220;2023-07-22T14:30:42;23.30;62.00
41457;DHT22;27197;51.752;5.220;2023-07-22T14:33:17;23.30;61.20
41457;DHT22;27197;51.752;5.220;2023-07-22T14:35:52;23.30;63.40
41457;DHT22;27197;51.752;5.220;2023-07-22T14:38:23;23.30;62.60
41457;DHT22;27197;51.752;5.220;2023-07-22T14:40:53;23.30;64.40
41457;DHT22;27197;51.752;5.220;2023-07-22T14:43:26;23.30;63.70
41457;DHT22;27197;51.752;5.220;2023-07-22T14:45:56;23.30;62.30
41457;DHT22;27197;51.752;5.220;2023-07-22T14:48:28;23.30;62.40
41457;DHT22;27197;51.752;5.220;2023-07-22T14:51:00;23.20;61.80
41457;DHT22;27197;51.752;5.220;2023-07-22T14:53:31;23.30;64.20
41457;DHT22;27197;51.752;5.220;2023-07-22T14:56:04;23.30;63.50
41457;DHT22;27197;51.752;5.220;2023-07-22T14:58:37;23.30;67.10
41457;DHT22;27197;51.752;5.220;2023-07-22T15:01:11;23.30;64.70
41457;DHT22;27197;51.752;5.220;2023-07-22T15:03:40;23.30;63.50
41457;DHT22;27197;51.752;5.220;2023-07-22T15:06:15;23.20;71.20
41457;DHT22;27197;51.752;5.220;2023-07-22T15:08:44;23.20;65.40
41457;DHT22;27197;51.752;5.220;2023-07-22T15:11:20;23.20;62.80
41457;DHT22;27197;51.752;5.220;2023-07-22T15:13:55;23.20;75.90
41457;DHT22;27197;51.752;5.220;2023-07-22T15:16:31;23.20;78.50
41457;DHT22;27197;51.752;5.220;2023-07-22T15:19:02;23.20;81.50
41457;DHT22;27197;51.752;5.220;2023-07-22T15:21:35;23.20;80.70
41457;DHT22;27197;51.752;5.220;2023-07-22T15:24:08;23.20;80.80
41457;DHT22;27197;51.752;5.220;2023-07-22T15:26:40;23.20;82.20
41457;DHT22;27197;51.752;5.220;2023-07-22T15:29:10;23.20;82.50
41457;DHT22;27197;51.752;5.220;2023-07-22T15:31:45;23.20;82.80
41457;DHT22;27197;51.752;5.220;2023-07-22T15:57:58;23.00;84.00
41457;DHT22;27197;51.752;5.220;2023-07-22T16:00:30;23.00;80.40
41457;DHT22;27197;51.752;5.220;2023-07-22T16:03:08;23.00;74.30
41457;DHT22;27197;51.752;5.220;2023-07-22T16:05:38;22.90;79.70
41457;DHT22;27197;51.752;5.220;2023-07-22T16:08:07;22.90;72.40
41457;DHT22;27197;51.752;5.220;2023-07-22T16:10:41;23.00;83.50
41457;DHT22;27197;51.752;5.220;2023-07-22T16:13:11;23.00;76.20
41457;DHT22;27197;51.752;5.220;2023-07-22T16:15:42;22.90;74.90
41457;DHT22;27197;51.752;5.220;2023-07-22T16:18:15;22.80;67.60
41457;DHT22;27197;51.752;5.220;2023-07-22T16:20:46;22.90;83.40
41457;DHT22;27197;51.752;5.220;2023-07-22T16:23:16;23.00;84.50
41457;DHT22;27197;51.752;5.220;2023-07-22T16:25:50;23.00;84.10
41457;DHT22;27197;51.752;5.220;2023-07-22T16:28:20;23.00;84.60
41457;DHT22;27197;51.752;5.220;2023-07-22T16:30:54;23.00;79.10
41457;DHT22;27197;51.752;5.220;2023-07-22T16:33:23;23.00;84.90
41457;DHT22;27197;51.752;5.220;2023-07-22T16:35:57;23.00;79.60
41457;DHT22;27197;51.752;5.220;2023-07-22T16:38:32;22.90;85.10
41457;DHT22;27197;51.752;5.220;2023-07-22T16:41:05;22.90;82.00
41457;DHT22;27197;51.752;5.220;2023-07-22T16:43:51;22.90;83.40
41457;DHT22;27197;51.752;5.220;2023-07-22T16:46:24;22.90;78.20
41457;DHT22;27197;51.752;5.220;2023-07-22T16:48:59;22.90;78.80
41457;DHT22;27197;51.752;5.220;2023-07-22T16:51:37;22.90;83.80
41457;DHT22;27197;51.752;5.220;2023-07-22T16:54:07;22.90;81.00
41457;DHT22;27197;51.752;5.220;2023-07-22T16:56:40;22.80;70.80
41457;DHT22;27197;51.752;5.220;2023-07-22T16:59:16;22.70;72.00
41457;DHT22;27197;51.752;5.220;2023-07-22T17:01:52;22.70;77.70
41457;DHT22;27197;51.752;5.220;2023-07-22T17:04:23;22.70;78.10
41457;DHT22;27197;51.752;5.220;2023-07-22T17:06:53;22.70;74.10
41457;DHT22;27197;51.752;5.220;2023-07-22T17:09:29;22.70;78.30
41457;DHT22;27197;51.752;5.220;2023-07-22T17:12:00;22.70;79.00
41457;DHT22;27197;51.752;5.220;2023-07-22T17:14:34;22.70;80.50
41457;DHT22;27197;51.752;5.220;2023-07-22T17:17:03;22.80;82.60
41457;DHT22;27197;51.752;5.220;2023-07-22T17:19:38;22.80;76.00
41457;DHT22;27197;51.752;5.220;2023-07-22T17:22:06;22.80;81.50
41457;DHT22;27197;51.752;5.220;2023-07-22T17:24:40;22.80;83.40
41457;DHT22;27197;51.752;5.220;2023-07-22T17:27:12;22.70;75.00
41457;DHT22;27197;51.752;5.220;2023-07-22T17:29:44;22.70;67.40
41457;DHT22;27197;51.752;5.220;2023-07-22T17:32:19;22.60;66.10
41457;DHT22;27197;51.752;5.220;2023-07-22T17:34:53;22.50;66.20
41457;DHT22;27197;51.752;5.220;2023-07-22T17:37:24;22.60;78.50
41457;DHT22;27197;51.752;5.220;2023-07-22T17:39:58;22.50;66.10
41457;DHT22;27197;51.752;5.220;2023-07-22T17:42:27;22.50;76.50
41457;DHT22;27197;51.752;5.220;2023-07-22T17:45:01;22.60;80.80
41457;DHT22;27197;51.752;5.220;2023-07-22T17:47:31;22.60;72.20
41457;DHT22;27197;51.752;5.220;2023-07-22T17:50:04;22.40;69.00
41457;DHT22;27197;51.752;5.220;2023-07-22T17:52:33;22.50;77.30
41457;DHT22;27197;51.752;5.220;2023-07-22T17:55:04;22.50;79.60
41457;DHT22;27197;51.752;5.220;2023-07-22T17:57:38;22.60;81.30
41457;DHT22;27197;51.752;5.220;2023-07-22T18:00:08;22.60;80.30
41457;DHT22;27197;51.752;5.220;2023-07-22T18:02:39;22.60;69.30
41457;DHT22;27197;51.752;5.220;2023-07-22T18:05:13;22.50;74.90
41457;DHT22;27197;51.752;5.220;2023-07-22T18:07:44;22.60;79.20
41457;DHT22;27197;51.752;5.220;2023-07-22T18:10:19;22.60;69.80
41457;DHT22;27197;51.752;5.220;2023-07-22T18:12:49;22.60;80.50
41457;DHT22;27197;51.752;5.220;2023-07-22T18:15:21;22.50;73.20
41457;DHT22;27197;51.752;5.220;2023-07-22T18:17:52;22.50;76.80
41457;DHT22;27197;51.752;5.220;2023-07-22T18:20:24;22.40;72.80
41457;DHT22;27197;51.752;5.220;2023-07-22T18:22:55;22.50;80.90
41457;DHT22;27197;51.752;5.220;2023-07-22T18:25:30;22.60;75.50
41457;DHT22;27197;51.752;5.220;2023-07-22T18:28:00;22.50;76.60
41457;DHT22;27197;51.752;5.220;2023-07-22T18:30:30;22.60;77.60
41457;DHT22;27197;51.752;5.220;2023-07-22T18:33:04;22.50;76.60
41457;DHT22;27197;51.752;5.220;2023-07-22T18:35:33;22.50;77.40
41457;DHT22;27197;51.752;5.220;2023-07-22T18:38:08;22.40;78.00
41457;DHT22;27197;51.752;5.220;2023-07-22T18:40:47;22.50;80.90
41457;DHT22;27197;51.752;5.220;2023-07-22T18:43:19;22.50;80.70
41457;DHT22;27197;51.752;5.220;2023-07-22T18:45:53;22.60;80.50
41457;DHT22;27197;51.752;5.220;2023-07-22T18:48:22;22.60;80.70
41457;DHT22;27197;51.752;5.220;2023-07-22T18:50:56;22.60;80.60
41457;DHT22;27197;51.752;5.220;2023-07-22T18:53:31;22.60;80.30
41457;DHT22;27197;51.752;5.220;2023-07-22T18:56:00;22.60;80.40
41457;DHT22;27197;51.752;5.220;2023-07-22T18:58:35;22.60;80.80
41457;DHT22;27197;51.752;5.220;2023-07-22T19:01:03;22.70;81.00